sensor_id;sensor_type;location;lat;lon;timestamp;P1;durP1;ratioP1;P2;durP2;ratioP2
7969;SDS011;4030;52.362;9.206;2022-07-23T00:01:35;2.20;;;2.00;;
7969;SDS011;4030;52.362;9.206;2022-07-23T00:04:00;3.50;;;2.42;;
7969;SDS011;4030;52.362;9.206;2022-07-23T00:06:26;2.45;;;2.25;;
7969;SDS011;4030;52.362;9.206;2022-07-23T00:08:52;2.95;;;2.20;;
7969;SDS011;4030;52.362;9.206;2022-07-23T00:11:18;2.53;;;2.20;;
7969;SDS011;4030;52.362;9.206;2022-07-23T00:13:46;2.95;;;2.25;;
7969;SDS011;4030;52.362;9.206;2022-07-23T00:16:12;3.83;;;2.40;;
7969;SDS011;4030;52.362;9.206;2022-07-23T00:18:38;2.55;;;2.15;;
7969;SDS011;4030;52.362;9.206;2022-07-23T00:21:04;3.83;;;2.30;;
7969;SDS011;4030;52.362;9.206;2022-07-23T00:23:30;2.45;;;1.92;;
7969;SDS011;4030;52.362;9.206;2022-07-23T00:25:56;2.60;;;2.25;;
7969;SDS011;4030;52.362;9.206;2022-07-23T00:28:22;2.47;;;2.20;;
7969;SDS011;4030;52.362;9.206;2022-07-23T00:30:47;2.47;;;2.28;;
7969;SDS011;4030;52.362;9.206;2022-07-23T00:33:13;2.40;;;2.17;;
7969;SDS011;4030;52.362;9.206;2022-07-23T00:35:39;3.03;;;2.40;;
7969;SDS011;4030;52.362;9.206;2022-07-23T00:38:06;2.25;;;2.00;;
7969;SDS011;4030;52.362;9.206;2022-07-23T00:40:34;2.78;;;2.10;;
7969;SDS011;4030;52.362;9.206;2022-07-23T00:43:00;2.25;;;2.05;;
7969;SDS011;4030;52.362;9.206;2022-07-23T00:45:27;2.30;;;2.10;;
7969;SDS011;4030;52.362;9.206;2022-07-23T00:47:53;2.65;;;2.15;;
7969;SDS011;4030;52.362;9.206;2022-07-23T00:50:18;2.63;;;2.17;;
7969;SDS011;4030;52.362;9.206;2022-07-23T00:52:44;2.60;;;2.40;;
7969;SDS011;4030;52.362;9.206;2022-07-23T00:55:11;3.03;;;2.20;;
7969;SDS011;4030;52.362;9.206;2022-07-23T00:57:37;2.63;;;2.42;;
7969;SDS011;4030;52.362;9.206;2022-07-23T01:00:04;3.05;;;2.42;;
7969;SDS011;4030;52.362;9.206;2022-07-23T01:02:31;2.30;;;2.03;;
7969;SDS011;4030;52.362;9.206;2022-07-23T01:04:57;2.65;;;2.45;;
7969;SDS011;4030;52.362;9.206;2022-07-23T01:07:23;2.40;;;2.20;;
7969;SDS011;4030;52.362;9.206;2022-07-23T01:09:49;2.67;;;2.30;;
7969;SDS011;4030;52.362;9.206;2022-07-23T01:12:16;2.60;;;2.40;;
7969;SDS011;4030;52.362;9.206;2022-07-23T01:14:42;2.30;;;2.10;;
7969;SDS011;4030;52.362;9.206;2022-07-23T01:17:08;2.88;;;2.30;;
7969;SDS011;4030;52.362;9.206;2022-07-23T01:19:34;2.50;;;2.30;;
7969;SDS011;4030;52.362;9.206;2022-07-23T01:22:01;2.50;;;2.30;;
7969;SDS011;4030;52.362;9.206;2022-07-23T01:24:27;2.50;;;2.30;;
7969;SDS011;4030;52.362;9.206;2022-07-23T01:26:53;4.03;;;2.22;;
7969;SDS011;4030;52.362;9.206;2022-07-23T01:29:19;2.70;;;2.50;;
7969;SDS011;4030;52.362;9.206;2022-07-23T01:31:46;2.65;;;2.15;;
7969;SDS011;4030;52.362;9.206;2022-07-23T01:34:12;2.35;;;2.00;;
7969;SDS011;4030;52.362;9.206;2022-07-23T01:36:38;3.08;;;2.28;;
7969;SDS011;4030;52.362;9.206;2022-07-23T01:39:04;4.95;;;2.15;;
7969;SDS011;4030;52.362;9.206;2022-07-23T01:41:31;2.83;;;2.53;;
7969;SDS011;4030;52.362;9.206;2022-07-23T01:43:57;2.40;;;2.17;;
7969;SDS011;4030;52.362;9.206;2022-07-23T01:46:22;2.97;;;2.20;;
7969;SDS011;4030;52.362;9.206;2022-07-23T01:48:48;2.30;;;2.10;;
7969;SDS011;4030;52.362;9.206;2022-07-23T01:51:14;2.90;;;2.30;;
7969;SDS011;4030;52.362;9.206;2022-07-23T01:53:40;2.53;;;2.30;;
7969;SDS011;4030;52.362;9.206;2022-07-23T01:56:06;2.70;;;2.35;;
7969;SDS011;4030;52.362;9.206;2022-07-23T01:58:31;2.78;;;2.40;;
7969;SDS011;4030;52.362;9.206;2022-07-23T02:00:57;2.58;;;2.00;;
7969;SDS011;4030;52.362;9.206;2022-07-23T02:03:23;2.17;;;1.98;;
7969;SDS011;4030;52.362;9.206;2022-07-23T02:05:49;2.53;;;2.03;;
7969;SDS011;4030;52.362;9.206;2022-07-23T02:08:15;2.70;;;2.50;;
7969;SDS011;4030;52.362;9.206;2022-07-23T02:10:41;2.53;;;2.20;;
7969;SDS011;4030;52.362;9.206;2022-07-23T02:13:07;2.92;;;2.30;;
7969;SDS011;4030;52.362;9.206;2022-07-23T02:15:33;2.75;;;2.10;;
7969;SDS011;4030;52.362;9.206;2022-07-23T02:17:59;2.53;;;2.17;;
7969;SDS011;4030;52.362;9.206;2022-07-23T02:20:25;2.40;;;2.20;;
7969;SDS011;4030;52.362;9.206;2022-07-23T02:22:51;3.20;;;2.13;;
7969;SDS011;4030;52.362;9.206;2022-07-23T02:25:17;2.28;;;2.00;;
7969;SDS011;4030;52.362;9.206;2022-07-23T02:27:42;2.22;;;1.95;;
7969;SDS011;4030;52.362;9.206;2022-07-23T02:30:08;2.28;;;2.08;;
7969;SDS011;4030;52.362;9.206;2022-07-23T02:32:34;2.42;;;2.20;;
7969;SDS011;4030;52.362;9.206;2022-07-23T02:35:00;3.05;;;2.30;;
7969;SDS011;4030;52.362;9.206;2022-07-23T02:37:27;3.47;;;2.00;;
7969;SDS011;4030;52.362;9.206;2022-07-23T02:39:52;2.95;;;2.35;;
7969;SDS011;4030;52.362;9.206;2022-07-23T02:42:18;2.72;;;2.15;;
7969;SDS011;4030;52.362;9.206;2022-07-23T02:44:44;3.08;;;2.40;;
7969;SDS011;4030;52.362;9.206;2022-07-23T02:47:10;2.20;;;2.00;;
7969;SDS011;4030;52.362;9.206;2022-07-23T02:49:36;2.88;;;2.58;;
7969;SDS011;4030;52.362;9.206;2022-07-23T02:52:02;2.83;;;2.30;;
7969;SDS011;4030;52.362;9.206;2022-07-23T02:54:28;2.80;;;2.50;;
7969;SDS011;4030;52.362;9.206;2022-07-23T02:56:53;2.28;;;2.08;;
7969;SDS011;4030;52.362;9.206;2022-07-23T02:59:19;3.00;;;2.50;;
7969;SDS011;4030;52.362;9.206;2022-07-23T03:01:45;2.60;;;2.00;;
7969;SDS011;4030;52.362;9.206;2022-07-23T03:04:11;2.95;;;2.30;;
7969;SDS011;4030;52.362;9.206;2022-07-23T03:06:37;3.10;;;2.47;;
7969;SDS011;4030;52.362;9.206;2022-07-23T03:09:03;3.47;;;2.33;;
7969;SDS011;4030;52.362;9.206;2022-07-23T03:11:29;3.05;;;2.20;;
7969;SDS011;4030;52.362;9.206;2022-07-23T03:13:55;2.75;;;2.28;;
7969;SDS011;4030;52.362;9.206;2022-07-23T03:16:21;2.55;;;2.00;;
7969;SDS011;4030;52.362;9.206;2022-07-23T03:18:47;2.75;;;2.42;;
7969;SDS011;4030;52.362;9.206;2022-07-23T03:21:13;2.60;;;2.08;;
7969;SDS011;4030;52.362;9.206;2022-07-23T03:23:38;3.42;;;1.98;;
7969;SDS011;4030;52.362;9.206;2022-07-23T03:26:04;3.03;;;2.28;;
7969;SDS011;4030;52.362;9.206;2022-07-23T03:28:30;4.65;;;2.50;;
7969;SDS011;4030;52.362;9.206;2022-07-23T03:30:55;3.45;;;2.30;;
7969;SDS011;4030;52.362;9.206;2022-07-23T03:33:21;3.08;;;2.20;;
7969;SDS011;4030;52.362;9.206;2022-07-23T03:35:47;2.45;;;2.10;;
7969;SDS011;4030;52.362;9.206;2022-07-23T03:38:13;3.17;;;2.30;;
7969;SDS011;4030;52.362;9.206;2022-07-23T03:40:39;2.58;;;2.15;;
7969;SDS011;4030;52.362;9.206;2022-07-23T03:43:05;3.53;;;2.33;;
7969;SDS011;4030;52.362;9.206;2022-07-23T03:45:31;3.25;;;2.33;;
7969;SDS011;4030;52.362;9.206;2022-07-23T03:47:57;3.40;;;2.20;;
7969;SDS011;4030;52.362;9.206;2022-07-23T03:50:22;3.05;;;2.42;;
7969;SDS011;4030;52.362;9.206;2022-07-23T03:52:48;4.35;;;2.30;;
7969;SDS011;4030;52.362;9.206;2022-07-23T03:55:14;3.10;;;2.45;;
7969;SDS011;4030;52.362;9.206;2022-07-23T03:57:40;2.40;;;2.20;;
7969;SDS011;4030;52.362;9.206;2022-07-23T04:00:07;2.80;;;2.05;;
7969;SDS011;4030;52.362;9.206;2022-07-23T04:02:37;2.75;;;2.28;;
7969;SDS011;4030;52.362;9.206;2022-07-23T04:05:04;2.80;;;2.05;;
7969;SDS011;4030;52.362;9.206;2022-07-23T04:07:30;2.92;;;2.33;;
7969;SDS011;4030;52.362;9.206;2022-07-23T04:09:56;2.63;;;2.03;;
7969;SDS011;4030;52.362;9.206;2022-07-23T04:12:22;2.28;;;2.08;;
7969;SDS011;4030;52.362;9.206;2022-07-23T04:14:48;2.90;;;2.28;;
7969;SDS011;4030;52.362;9.206;2022-07-23T04:17:14;4.28;;;2.33;;
7969;SDS011;4030;52.362;9.206;2022-07-23T04:19:39;2.92;;;2.28;;
7969;SDS011;4030;52.362;9.206;2022-07-23T04:22:09;3.25;;;2.30;;
7969;SDS011;4030;52.362;9.206;2022-07-23T04:24:35;3.38;;;2.10;;
7969;SDS011;4030;52.362;9.206;2022-07-23T04:27:01;2.33;;;2.10;;
7969;SDS011;4030;52.362;9.206;2022-07-23T04:29:27;2.72;;;2.20;;
7969;SDS011;4030;52.362;9.206;2022-07-23T04:31:53;2.90;;;2.20;;
7969;SDS011;4030;52.362;9.206;2022-07-23T04:34:19;3.35;;;2.20;;
7969;SDS011;4030;52.362;9.206;2022-07-23T04:36:45;3.53;;;2.30;;
7969;SDS011;4030;52.362;9.206;2022-07-23T04:39:11;2.38;;;2.17;;
7969;SDS011;4030;52.362;9.206;2022-07-23T04:41:37;4.05;;;2.35;;
7969;SDS011;4030;52.362;9.206;2022-07-23T04:44:03;3.40;;;2.22;;
7969;SDS011;4030;52.362;9.206;2022-07-23T04:46:29;2.55;;;2.10;;
7969;SDS011;4030;52.362;9.206;2022-07-23T04:48:55;2.50;;;2.25;;
7969;SDS011;4030;52.362;9.206;2022-07-23T04:51:21;2.88;;;2.20;;
7969;SDS011;4030;52.362;9.206;2022-07-23T04:53:47;2.88;;;2.22;;
7969;SDS011;4030;52.362;9.206;2022-07-23T04:56:12;3.30;;;2.05;;
7969;SDS011;4030;52.362;9.206;2022-07-23T04:58:38;3.40;;;2.30;;
7969;SDS011;4030;52.362;9.206;2022-07-23T05:01:04;3.00;;;2.35;;
7969;SDS011;4030;52.362;9.206;2022-07-23T05:03:30;3.38;;;2.45;;
7969;SDS011;4030;52.362;9.206;2022-07-23T05:05:56;3.72;;;2.35;;
7969;SDS011;4030;52.362;9.206;2022-07-23T05:08:22;2.80;;;2.05;;
7969;SDS011;4030;52.362;9.206;2022-07-23T05:10:47;2.85;;;2.20;;
7969;SDS011;4030;52.362;9.206;2022-07-23T05:13:16;2.88;;;2.30;;
7969;SDS011;4030;52.362;9.206;2022-07-23T05:15:43;4.35;;;2.20;;
7969;SDS011;4030;52.362;9.206;2022-07-23T05:18:09;3.25;;;2.25;;
7969;SDS011;4030;52.362;9.206;2022-07-23T05:20:34;2.88;;;2.08;;
7969;SDS011;4030;52.362;9.206;2022-07-23T05:23:00;3.55;;;2.15;;
7969;SDS011;4030;52.362;9.206;2022-07-23T05:25:26;5.43;;;2.13;;
7969;SDS011;4030;52.362;9.206;2022-07-23T05:27:52;2.92;;;2.05;;
7969;SDS011;4030;52.362;9.206;2022-07-23T05:30:18;2.20;;;2.00;;
7969;SDS011;4030;52.362;9.206;2022-07-23T05:32:44;2.38;;;2.13;;
7969;SDS011;4030;52.362;9.206;2022-07-23T05:35:09;2.65;;;2.10;;
7969;SDS011;4030;52.362;9.206;2022-07-23T05:37:36;2.15;;;1.90;;
7969;SDS011;4030;52.362;9.206;2022-07-23T05:40:05;2.72;;;2.10;;
7969;SDS011;4030;52.362;9.206;2022-07-23T05:42:35;2.88;;;2.28;;
7969;SDS011;4030;52.362;9.206;2022-07-23T05:45:02;2.75;;;2.05;;
7969;SDS011;4030;52.362;9.206;2022-07-23T05:47:28;2.95;;;2.10;;
7969;SDS011;4030;52.362;9.206;2022-07-23T05:49:53;3.95;;;2.13;;
7969;SDS011;4030;52.362;9.206;2022-07-23T05:52:19;3.60;;;2.03;;
7969;SDS011;4030;52.362;9.206;2022-07-23T05:54:45;2.85;;;2.03;;
7969;SDS011;4030;52.362;9.206;2022-07-23T05:57:11;2.53;;;2.00;;
7969;SDS011;4030;52.362;9.206;2022-07-23T05:59:37;4.22;;;2.13;;
7969;SDS011;4030;52.362;9.206;2022-07-23T06:02:02;2.70;;;2.20;;
7969;SDS011;4030;52.362;9.206;2022-07-23T06:04:28;4.13;;;2.42;;
7969;SDS011;4030;52.362;9.206;2022-07-23T06:06:54;2.95;;;2.05;;
7969;SDS011;4030;52.362;9.206;2022-07-23T06:09:19;2.95;;;1.90;;
7969;SDS011;4030;52.362;9.206;2022-07-23T06:11:45;2.60;;;1.90;;
7969;SDS011;4030;52.362;9.206;2022-07-23T06:14:11;3.00;;;2.22;;
7969;SDS011;4030;52.362;9.206;2022-07-23T06:16:36;2.67;;;2.10;;
7969;SDS011;4030;52.362;9.206;2022-07-23T06:19:02;2.10;;;1.80;;
7969;SDS011;4030;52.362;9.206;2022-07-23T06:21:28;2.75;;;1.70;;
7969;SDS011;4030;52.362;9.206;2022-07-23T06:23:54;1.92;;;1.80;;
7969;SDS011;4030;52.362;9.206;2022-07-23T06:26:20;2.28;;;1.80;;
7969;SDS011;4030;52.362;9.206;2022-07-23T06:28:46;1.63;;;1.40;;
7969;SDS011;4030;52.362;9.206;2022-07-23T06:31:11;1.50;;;1.40;;
7969;SDS011;4030;52.362;9.206;2022-07-23T06:33:37;2.10;;;1.50;;
7969;SDS011;4030;52.362;9.206;2022-07-23T06:36:02;3.30;;;1.90;;
7969;SDS011;4030;52.362;9.206;2022-07-23T06:38:28;2.25;;;1.70;;
7969;SDS011;4030;52.362;9.206;2022-07-23T06:40:54;2.20;;;2.00;;
7969;SDS011;4030;52.362;9.206;2022-07-23T06:43:20;2.40;;;1.88;;
7969;SDS011;4030;52.362;9.206;2022-07-23T06:45:46;2.35;;;1.77;;
7969;SDS011;4030;52.362;9.206;2022-07-23T06:48:12;2.72;;;1.92;;
7969;SDS011;4030;52.362;9.206;2022-07-23T06:50:38;3.20;;;1.88;;
7969;SDS011;4030;52.362;9.206;2022-07-23T06:53:04;2.08;;;1.83;;
7969;SDS011;4030;52.362;9.206;2022-07-23T06:55:29;2.40;;;1.70;;
7969;SDS011;4030;52.362;9.206;2022-07-23T06:57:56;1.95;;;1.63;;
7969;SDS011;4030;52.362;9.206;2022-07-23T07:00:22;3.20;;;1.80;;
7969;SDS011;4030;52.362;9.206;2022-07-23T07:02:47;2.13;;;1.60;;
7969;SDS011;4030;52.362;9.206;2022-07-23T07:05:13;2.17;;;1.60;;
7969;SDS011;4030;52.362;9.206;2022-07-23T07:07:39;2.85;;;1.80;;
7969;SDS011;4030;52.362;9.206;2022-07-23T07:10:05;2.33;;;1.58;;
7969;SDS011;4030;52.362;9.206;2022-07-23T07:12:31;2.00;;;1.55;;
7969;SDS011;4030;52.362;9.206;2022-07-23T07:14:57;1.55;;;1.45;;
7969;SDS011;4030;52.362;9.206;2022-07-23T07:17:23;2.53;;;1.75;;
7969;SDS011;4030;52.362;9.206;2022-07-23T07:19:49;2.53;;;1.67;;
7969;SDS011;4030;52.362;9.206;2022-07-23T07:22:15;2.45;;;1.55;;
7969;SDS011;4030;52.362;9.206;2022-07-23T07:24:40;2.08;;;1.70;;
7969;SDS011;4030;52.362;9.206;2022-07-23T07:27:06;2.08;;;1.60;;
7969;SDS011;4030;52.362;9.206;2022-07-23T07:29:31;2.88;;;1.75;;
7969;SDS011;4030;52.362;9.206;2022-07-23T07:31:57;2.25;;;1.25;;
7969;SDS011;4030;52.362;9.206;2022-07-23T07:34:23;1.70;;;1.38;;
7969;SDS011;4030;52.362;9.206;2022-07-23T07:36:49;1.95;;;1.45;;
7969;SDS011;4030;52.362;9.206;2022-07-23T07:39:15;2.17;;;1.40;;
7969;SDS011;4030;52.362;9.206;2022-07-23T07:41:41;2.35;;;1.40;;
7969;SDS011;4030;52.362;9.206;2022-07-23T07:44:06;2.70;;;1.35;;
7969;SDS011;4030;52.362;9.206;2022-07-23T07:46:32;2.13;;;1.38;;
7969;SDS011;4030;52.362;9.206;2022-07-23T07:48:58;2.78;;;1.30;;
7969;SDS011;4030;52.362;9.206;2022-07-23T07:51:23;1.70;;;1.25;;
7969;SDS011;4030;52.362;9.206;2022-07-23T07:53:49;1.85;;;1.23;;
7969;SDS011;4030;52.362;9.206;2022-07-23T07:56:14;1.90;;;1.33;;
7969;SDS011;4030;52.362;9.206;2022-07-23T07:58:40;1.90;;;1.40;;
7969;SDS011;4030;52.362;9.206;2022-07-23T08:01:06;1.58;;;1.17;;
7969;SDS011;4030;52.362;9.206;2022-07-23T08:03:32;1.33;;;1.23;;
7969;SDS011;4030;52.362;9.206;2022-07-23T08:05:58;1.98;;;1.20;;
7969;SDS011;4030;52.362;9.206;2022-07-23T08:08:24;1.60;;;0.90;;
7969;SDS011;4030;52.362;9.206;2022-07-23T08:10:49;2.03;;;1.17;;
7969;SDS011;4030;52.362;9.206;2022-07-23T08:13:16;1.45;;;0.98;;
7969;SDS011;4030;52.362;9.206;2022-07-23T08:15:42;1.52;;;1.17;;
7969;SDS011;4030;52.362;9.206;2022-07-23T08:18:09;2.10;;;1.40;;
7969;SDS011;4030;52.362;9.206;2022-07-23T08:20:35;1.95;;;0.90;;
7969;SDS011;4030;52.362;9.206;2022-07-23T08:23:04;1.35;;;0.90;;
7969;SDS011;4030;52.362;9.206;2022-07-23T08:25:33;1.73;;;1.00;;
7969;SDS011;4030;52.362;9.206;2022-07-23T08:28:04;1.42;;;0.98;;
7969;SDS011;4030;52.362;9.206;2022-07-23T08:30:31;1.85;;;0.82;;
7969;SDS011;4030;52.362;9.206;2022-07-23T08:32:59;2.47;;;1.20;;
7969;SDS011;4030;52.362;9.206;2022-07-23T08:35:29;2.28;;;1.15;;
7969;SDS011;4030;52.362;9.206;2022-07-23T08:37:58;1.45;;;1.00;;
7969;SDS011;4030;52.362;9.206;2022-07-23T08:40:25;1.95;;;1.10;;
7969;SDS011;4030;52.362;9.206;2022-07-23T08:42:52;1.90;;;1.10;;
7969;SDS011;4030;52.362;9.206;2022-07-23T08:45:19;1.50;;;1.00;;
7969;SDS011;4030;52.362;9.206;2022-07-23T08:47:48;1.33;;;1.00;;
7969;SDS011;4030;52.362;9.206;2022-07-23T08:50:15;1.10;;;1.00;;
7969;SDS011;4030;52.362;9.206;2022-07-23T08:52:41;1.38;;;0.93;;
7969;SDS011;4030;52.362;9.206;2022-07-23T08:55:07;2.22;;;1.20;;
7969;SDS011;4030;52.362;9.206;2022-07-23T08:57:33;1.33;;;1.13;;
7969;SDS011;4030;52.362;9.206;2022-07-23T08:59:59;3.28;;;1.58;;
7969;SDS011;4030;52.362;9.206;2022-07-23T09:02:25;3.05;;;1.40;;
7969;SDS011;4030;52.362;9.206;2022-07-23T09:04:50;2.08;;;1.00;;
7969;SDS011;4030;52.362;9.206;2022-07-23T09:07:16;1.10;;;0.93;;
7969;SDS011;4030;52.362;9.206;2022-07-23T09:09:42;2.42;;;1.58;;
7969;SDS011;4030;52.362;9.206;2022-07-23T09:12:08;2.10;;;1.45;;
7969;SDS011;4030;52.362;9.206;2022-07-23T09:14:36;3.22;;;1.30;;
7969;SDS011;4030;52.362;9.206;2022-07-23T09:17:13;1.52;;;1.00;;
7969;SDS011;4030;52.362;9.206;2022-07-23T09:19:40;2.20;;;1.10;;
7969;SDS011;4030;52.362;9.206;2022-07-23T09:22:22;2.92;;;1.27;;
7969;SDS011;4030;52.362;9.206;2022-07-23T09:30:20;1.65;;;1.02;;
7969;SDS011;4030;52.362;9.206;2022-07-23T09:35:50;1.00;;;0.90;;
7969;SDS011;4030;52.362;9.206;2022-07-23T09:38:18;2.03;;;1.00;;
7969;SDS011;4030;52.362;9.206;2022-07-23T09:40:45;3.05;;;0.93;;
7969;SDS011;4030;52.362;9.206;2022-07-23T09:43:12;4.88;;;1.40;;
7969;SDS011;4030;52.362;9.206;2022-07-23T09:45:51;5.57;;;1.30;;
7969;SDS011;4030;52.362;9.206;2022-07-23T09:48:16;2.30;;;1.00;;
7969;SDS011;4030;52.362;9.206;2022-07-23T09:50:43;1.48;;;1.00;;
7969;SDS011;4030;52.362;9.206;2022-07-23T09:53:09;3.28;;;1.10;;
7969;SDS011;4030;52.362;9.206;2022-07-23T09:55:48;2.67;;;1.13;;
7969;SDS011;4030;52.362;9.206;2022-07-23T09:58:15;1.13;;;0.95;;
7969;SDS011;4030;52.362;9.206;2022-07-23T10:00:41;1.15;;;1.00;;
7969;SDS011;4030;52.362;9.206;2022-07-23T10:03:09;1.30;;;0.90;;
7969;SDS011;4030;52.362;9.206;2022-07-23T10:05:36;1.65;;;1.10;;
7969;SDS011;4030;52.362;9.206;2022-07-23T10:08:03;2.25;;;1.20;;
7969;SDS011;4030;52.362;9.206;2022-07-23T10:10:31;2.53;;;1.10;;
7969;SDS011;4030;52.362;9.206;2022-07-23T10:12:57;1.70;;;1.10;;
7969;SDS011;4030;52.362;9.206;2022-07-23T10:15:36;1.75;;;1.10;;
7969;SDS011;4030;52.362;9.206;2022-07-23T10:18:01;4.50;;;1.17;;
7969;SDS011;4030;52.362;9.206;2022-07-23T10:20:28;1.05;;;0.88;;
7969;SDS011;4030;52.362;9.206;2022-07-23T10:23:02;1.75;;;1.05;;
7969;SDS011;4030;52.362;9.206;2022-07-23T10:28:58;1.10;;;0.98;;
7969;SDS011;4030;52.362;9.206;2022-07-23T10:31:47;1.23;;;1.00;;
7969;SDS011;4030;52.362;9.206;2022-07-23T10:34:35;1.27;;;0.88;;
7969;SDS011;4030;52.362;9.206;2022-07-23T10:37:21;1.70;;;1.05;;
7969;SDS011;4030;52.362;9.206;2022-07-23T10:42:58;2.60;;;0.98;;
7969;SDS011;4030;52.362;9.206;2022-07-23T10:59:20;1.00;;;0.80;;
7969;SDS011;4030;52.362;9.206;2022-07-23T11:01:46;2.58;;;0.90;;
7969;SDS011;4030;52.362;9.206;2022-07-23T11:04:11;2.25;;;0.75;;
7969;SDS011;4030;52.362;9.206;2022-07-23T11:09:28;1.60;;;0.90;;
7969;SDS011;4030;52.362;9.206;2022-07-23T11:12:31;0.70;;;0.63;;
7969;SDS011;4030;52.362;9.206;2022-07-23T11:17:23;1.42;;;0.93;;
7969;SDS011;4030;52.362;9.206;2022-07-23T11:25:09;2.17;;;0.75;;
7969;SDS011;4030;52.362;9.206;2022-07-23T11:27:43;0.98;;;0.70;;
7969;SDS011;4030;52.362;9.206;2022-07-23T11:30:12;1.35;;;0.80;;
7969;SDS011;4030;52.362;9.206;2022-07-23T11:35:23;1.10;;;0.77;;
7969;SDS011;4030;52.362;9.206;2022-07-23T11:37:51;0.82;;;0.70;;
7969;SDS011;4030;52.362;9.206;2022-07-23T11:40:27;1.38;;;0.70;;
7969;SDS011;4030;52.362;9.206;2022-07-23T11:42:57;1.35;;;0.80;;
7969;SDS011;4030;52.362;9.206;2022-07-23T11:45:46;0.77;;;0.77;;
7969;SDS011;4030;52.362;9.206;2022-07-23T11:48:17;0.95;;;0.70;;
7969;SDS011;4030;52.362;9.206;2022-07-23T11:50:45;0.80;;;0.50;;
7969;SDS011;4030;52.362;9.206;2022-07-23T11:53:11;0.75;;;0.60;;
7969;SDS011;4030;52.362;9.206;2022-07-23T11:55:37;2.05;;;0.60;;
7969;SDS011;4030;52.362;9.206;2022-07-23T11:58:03;1.00;;;0.68;;
7969;SDS011;4030;52.362;9.206;2022-07-23T12:00:29;1.00;;;0.60;;
7969;SDS011;4030;52.362;9.206;2022-07-23T12:02:57;2.10;;;0.60;;
7969;SDS011;4030;52.362;9.206;2022-07-23T12:05:27;0.60;;;0.50;;
7969;SDS011;4030;52.362;9.206;2022-07-23T12:07:55;0.80;;;0.60;;
7969;SDS011;4030;52.362;9.206;2022-07-23T12:10:37;0.55;;;0.55;;
7969;SDS011;4030;52.362;9.206;2022-07-23T12:13:07;1.13;;;0.50;;
7969;SDS011;4030;52.362;9.206;2022-07-23T12:15:42;1.17;;;0.50;;
7969;SDS011;4030;52.362;9.206;2022-07-23T12:18:09;1.65;;;0.60;;
7969;SDS011;4030;52.362;9.206;2022-07-23T12:20:38;0.40;;;0.40;;
7969;SDS011;4030;52.362;9.206;2022-07-23T12:23:07;1.02;;;0.50;;
7969;SDS011;4030;52.362;9.206;2022-07-23T12:25:34;1.17;;;0.60;;
7969;SDS011;4030;52.362;9.206;2022-07-23T12:28:08;0.75;;;0.50;;
7969;SDS011;4030;52.362;9.206;2022-07-23T12:30:41;0.88;;;0.50;;
7969;SDS011;4030;52.362;9.206;2022-07-23T12:33:14;1.70;;;0.70;;
7969;SDS011;4030;52.362;9.206;2022-07-23T12:35:47;0.90;;;0.50;;
7969;SDS011;4030;52.362;9.206;2022-07-23T12:38:14;0.98;;;0.65;;
7969;SDS011;4030;52.362;9.206;2022-07-23T12:45:50;1.65;;;0.70;;
7969;SDS011;4030;52.362;9.206;2022-07-23T12:50:49;0.77;;;0.47;;
7969;SDS011;4030;52.362;9.206;2022-07-23T12:53:30;1.00;;;0.50;;
7969;SDS011;4030;52.362;9.206;2022-07-23T12:56:05;1.00;;;0.52;;
7969;SDS011;4030;52.362;9.206;2022-07-23T12:58:49;0.90;;;0.50;;
7969;SDS011;4030;52.362;9.206;2022-07-23T13:06:47;0.55;;;0.43;;
7969;SDS011;4030;52.362;9.206;2022-07-23T13:09:15;0.75;;;0.32;;
7969;SDS011;4030;52.362;9.206;2022-07-23T13:11:46;1.30;;;0.60;;
7969;SDS011;4030;52.362;9.206;2022-07-23T13:14:13;1.75;;;0.50;;
7969;SDS011;4030;52.362;9.206;2022-07-23T13:16:39;0.52;;;0.38;;
7969;SDS011;4030;52.362;9.206;2022-07-23T13:19:06;0.40;;;0.40;;
7969;SDS011;4030;52.362;9.206;2022-07-23T13:21:32;0.82;;;0.60;;
7969;SDS011;4030;52.362;9.206;2022-07-23T13:23:58;0.82;;;0.45;;
7969;SDS011;4030;52.362;9.206;2022-07-23T13:26:23;0.93;;;0.40;;
7969;SDS011;4030;52.362;9.206;2022-07-23T13:28:49;2.10;;;0.45;;
7969;SDS011;4030;52.362;9.206;2022-07-23T13:31:18;0.40;;;0.30;;
7969;SDS011;4030;52.362;9.206;2022-07-23T13:33:44;0.30;;;0.30;;
7969;SDS011;4030;52.362;9.206;2022-07-23T13:36:09;0.50;;;0.40;;
7969;SDS011;4030;52.362;9.206;2022-07-23T13:38:35;0.60;;;0.60;;
7969;SDS011;4030;52.362;9.206;2022-07-23T13:41:01;1.40;;;0.57;;
7969;SDS011;4030;52.362;9.206;2022-07-23T13:43:30;0.63;;;0.47;;
7969;SDS011;4030;52.362;9.206;2022-07-23T13:45:56;1.58;;;0.40;;
7969;SDS011;4030;52.362;9.206;2022-07-23T13:48:22;0.40;;;0.38;;
7969;SDS011;4030;52.362;9.206;2022-07-23T13:50:48;0.50;;;0.40;;
7969;SDS011;4030;52.362;9.206;2022-07-23T13:53:16;0.57;;;0.50;;
7969;SDS011;4030;52.362;9.206;2022-07-23T13:55:44;0.65;;;0.55;;
7969;SDS011;4030;52.362;9.206;2022-07-23T13:58:11;1.98;;;0.50;;
7969;SDS011;4030;52.362;9.206;2022-07-23T14:00:38;0.68;;;0.40;;
7969;SDS011;4030;52.362;9.206;2022-07-23T14:03:05;0.60;;;0.47;;
7969;SDS011;4030;52.362;9.206;2022-07-23T14:05:31;0.85;;;0.30;;
7969;SDS011;4030;52.362;9.206;2022-07-23T14:07:56;0.57;;;0.40;;
7969;SDS011;4030;52.362;9.206;2022-07-23T14:10:22;0.40;;;0.40;;
7969;SDS011;4030;52.362;9.206;2022-07-23T14:12:49;1.25;;;0.50;;
7969;SDS011;4030;52.362;9.206;2022-07-23T14:15:17;0.93;;;0.60;;
7969;SDS011;4030;52.362;9.206;2022-07-23T14:17:44;0.47;;;0.47;;
7969;SDS011;4030;52.362;9.206;2022-07-23T14:20:11;1.73;;;0.50;;
7969;SDS011;4030;52.362;9.206;2022-07-23T14:22:38;0.63;;;0.52;;
7969;SDS011;4030;52.362;9.206;2022-07-23T14:25:05;1.17;;;0.57;;
7969;SDS011;4030;52.362;9.206;2022-07-23T14:27:32;1.50;;;0.40;;
7969;SDS011;4030;52.362;9.206;2022-07-23T14:29:57;0.70;;;0.40;;
7969;SDS011;4030;52.362;9.206;2022-07-23T14:32:24;1.42;;;0.50;;
7969;SDS011;4030;52.362;9.206;2022-07-23T14:34:49;0.65;;;0.40;;
7969;SDS011;4030;52.362;9.206;2022-07-23T14:37:15;0.82;;;0.40;;
7969;SDS011;4030;52.362;9.206;2022-07-23T14:39:41;0.85;;;0.45;;
7969;SDS011;4030;52.362;9.206;2022-07-23T14:42:09;0.73;;;0.50;;
7969;SDS011;4030;52.362;9.206;2022-07-23T14:44:35;0.50;;;0.35;;
7969;SDS011;4030;52.362;9.206;2022-07-23T14:47:02;0.50;;;0.50;;
7969;SDS011;4030;52.362;9.206;2022-07-23T14:49:29;0.68;;;0.50;;
7969;SDS011;4030;52.362;9.206;2022-07-23T14:51:56;0.40;;;0.40;;
7969;SDS011;4030;52.362;9.206;2022-07-23T14:54:21;1.50;;;0.40;;
7969;SDS011;4030;52.362;9.206;2022-07-23T14:56:48;0.52;;;0.45;;
7969;SDS011;4030;52.362;9.206;2022-07-23T14:59:13;1.35;;;0.40;;
7969;SDS011;4030;52.362;9.206;2022-07-23T15:01:39;0.55;;;0.35;;
7969;SDS011;4030;52.362;9.206;2022-07-23T15:04:05;0.57;;;0.47;;
7969;SDS011;4030;52.362;9.206;2022-07-23T15:06:32;1.08;;;0.55;;
7969;SDS011;4030;52.362;9.206;2022-07-23T15:08:58;0.45;;;0.30;;
7969;SDS011;4030;52.362;9.206;2022-07-23T15:11:25;0.70;;;0.47;;
7969;SDS011;4030;52.362;9.206;2022-07-23T15:13:51;0.50;;;0.40;;
7969;SDS011;4030;52.362;9.206;2022-07-23T15:16:17;0.30;;;0.30;;
7969;SDS011;4030;52.362;9.206;2022-07-23T15:18:42;0.30;;;0.30;;
7969;SDS011;4030;52.362;9.206;2022-07-23T15:21:08;0.55;;;0.47;;
7969;SDS011;4030;52.362;9.206;2022-07-23T15:23:34;0.80;;;0.43;;
7969;SDS011;4030;52.362;9.206;2022-07-23T15:26:00;0.68;;;0.25;;
7969;SDS011;4030;52.362;9.206;2022-07-23T15:28:25;0.63;;;0.47;;
7969;SDS011;4030;52.362;9.206;2022-07-23T15:30:51;1.00;;;0.38;;
7969;SDS011;4030;52.362;9.206;2022-07-23T15:33:17;1.15;;;0.50;;
7969;SDS011;4030;52.362;9.206;2022-07-23T15:35:44;0.50;;;0.50;;
7969;SDS011;4030;52.362;9.206;2022-07-23T15:38:10;1.38;;;0.60;;
7969;SDS011;4030;52.362;9.206;2022-07-23T15:40:36;0.57;;;0.30;;
7969;SDS011;4030;52.362;9.206;2022-07-23T15:43:02;0.55;;;0.40;;
7969;SDS011;4030;52.362;9.206;2022-07-23T15:45:27;1.75;;;0.68;;
7969;SDS011;4030;52.362;9.206;2022-07-23T15:47:54;0.63;;;0.40;;
7969;SDS011;4030;52.362;9.206;2022-07-23T15:50:20;0.90;;;0.50;;
7969;SDS011;4030;52.362;9.206;2022-07-23T15:52:46;0.63;;;0.47;;
7969;SDS011;4030;52.362;9.206;2022-07-23T15:55:12;0.88;;;0.40;;
7969;SDS011;4030;52.362;9.206;2022-07-23T15:57:37;0.63;;;0.43;;
7969;SDS011;4030;52.362;9.206;2022-07-23T16:00:04;1.13;;;0.28;;
7969;SDS011;4030;52.362;9.206;2022-07-23T16:02:31;0.68;;;0.40;;
7969;SDS011;4030;52.362;9.206;2022-07-23T16:04:57;0.40;;;0.40;;
7969;SDS011;4030;52.362;9.206;2022-07-23T16:07:22;1.10;;;0.50;;
7969;SDS011;4030;52.362;9.206;2022-07-23T16:09:48;0.40;;;0.40;;